createdAt,value
2023-02-20T00:00:41.324Z,65.51
2023-02-20T00:03:08.237Z,65.60
2023-02-20T00:05:35.157Z,65.82
2023-02-20T00:08:02.032Z,66.33
2023-02-20T00:10:28.589Z,66.09
2023-02-20T00:12:55.078Z,65.95
2023-02-20T00:15:22.484Z,66.17
2023-02-20T00:17:49.033Z,66.26
2023-02-20T00:20:17.452Z,66.16
2023-02-20T00:22:43.968Z,66.11
2023-02-20T00:25:10.515Z,66.32
2023-02-20T00:27:36.995Z,66.51
2023-02-20T00:30:04.921Z,66.82
2023-02-20T00:32:31.463Z,66.53
2023-02-20T00:35:01.221Z,66.38
2023-02-20T00:37:27.810Z,66.07
2023-02-20T00:39:54.297Z,66.30
2023-02-20T00:42:21.229Z,66.24
2023-02-20T00:44:47.729Z,66.22
2023-02-20T00:47:14.260Z,65.97
2023-02-20T00:49:40.779Z,66.36
2023-02-20T00:52:14.969Z,66.12
2023-02-20T00:54:41.636Z,66.09
2023-02-20T00:57:08.151Z,66.25
2023-02-20T00:59:34.681Z,66.19
2023-02-20T01:02:01.183Z,66.44
2023-02-20T01:04:27.838Z,66.40
2023-02-20T01:06:54.347Z,66.22
2023-02-20T01:09:20.928Z,66.18
2023-02-20T01:11:48.449Z,66.28
2023-02-20T01:14:14.994Z,66.00
2023-02-20T01:16:48.824Z,66.53
2023-02-20T01:19:15.447Z,66.48
2023-02-20T01:21:42.850Z,66.59
2023-02-20T01:24:11.195Z,66.59
2023-02-20T01:26:37.710Z,66.43
2023-02-20T01:29:04.653Z,66.41
2023-02-20T01:31:31.273Z,66.65
2023-02-20T01:33:57.830Z,66.57
2023-02-20T01:36:24.313Z,66.46
2023-02-20T01:38:51.151Z,67.03
2023-02-20T01:41:18.934Z,66.71
2023-02-20T01:43:45.992Z,66.69
2023-02-20T01:46:27.664Z,66.71
2023-02-20T01:49:06.410Z,67.17
2023-02-20T01:51:36.272Z,66.68
2023-02-20T01:54:04.680Z,67.28
2023-02-20T01:56:32.132Z,67.12
2023-02-20T01:58:58.640Z,67.41
2023-02-20T02:01:25.134Z,67.50
2023-02-20T02:03:56.532Z,67.31
2023-02-20T02:06:25.584Z,67.34
2023-02-20T02:08:53.143Z,67.04
2023-02-20T02:11:23.159Z,67.57
2023-02-20T02:13:49.829Z,67.35
2023-02-20T02:16:25.033Z,67.44
2023-02-20T02:19:29.353Z,67.51
2023-02-20T02:22:40.958Z,67.30
2023-02-20T02:25:32.835Z,67.97
2023-02-20T02:28:21.591Z,67.60
2023-02-20T02:31:25.761Z,67.90
2023-02-20T02:34:41.510Z,67.72
2023-02-20T02:37:16.676Z,67.30
2023-02-20T02:39:48.901Z,67.40
2023-02-20T02:42:28.023Z,67.69
2023-02-20T02:45:11.383Z,67.72
2023-02-20T02:47:59.848Z,67.70
2023-02-20T02:50:36.735Z,67.35
2023-02-20T02:53:05.379Z,67.87
2023-02-20T02:55:35.776Z,68.02
2023-02-20T02:58:03.296Z,67.70
2023-02-20T03:00:34.244Z,67.97
2023-02-20T03:03:24.836Z,67.70
2023-02-20T03:06:13.797Z,67.53
2023-02-20T03:08:46.932Z,67.34
2023-02-20T03:11:16.336Z,67.51
2023-02-20T03:14:17.733Z,67.17
2023-02-20T03:16:56.203Z,66.93
2023-02-20T03:19:28.416Z,67.27
2023-02-20T03:21:55.992Z,67.29
2023-02-20T03:24:24.282Z,67.04
2023-02-20T03:26:53.545Z,67.48
2023-02-20T03:29:27.888Z,67.20
2023-02-20T03:32:17.169Z,66.96
2023-02-20T03:35:03.013Z,67.07
2023-02-20T03:37:49.299Z,67.01
2023-02-20T03:40:35.144Z,67.33
2023-02-20T03:43:23.400Z,67.22
2023-02-20T03:45:52.031Z,67.37
2023-02-20T03:48:26.271Z,67.16
2023-02-20T03:50:52.869Z,66.84
2023-02-20T03:53:24.500Z,66.73
2023-02-20T03:55:52.075Z,67.29
2023-02-20T03:58:23.217Z,67.22
2023-02-20T04:00:51.824Z,67.19
2023-02-20T04:03:21.547Z,66.97
2023-02-20T04:05:52.834Z,66.70
2023-02-20T04:09:04.911Z,66.74
2023-02-20T04:11:39.809Z,67.08
2023-02-20T04:14:07.619Z,67.41
2023-02-20T04:16:37.829Z,67.18
2023-02-20T04:19:04.972Z,67.56
2023-02-20T04:21:45.944Z,67.39
2023-02-20T04:24:23.732Z,67.30
2023-02-20T04:26:50.514Z,67.37
2023-02-20T04:29:17.671Z,66.76
2023-02-20T04:31:44.347Z,67.33
2023-02-20T04:34:11.669Z,67.84
2023-02-20T04:36:39.452Z,67.20
2023-02-20T04:39:06.056Z,67.19
2023-02-20T04:41:33.432Z,67.40
2023-02-20T04:44:18.886Z,67.48
2023-02-20T04:46:48.152Z,67.00
2023-02-20T04:49:15.399Z,67.42
2023-02-20T04:51:46.188Z,67.90
2023-02-20T04:54:12.706Z,67.83
2023-02-20T04:56:39.889Z,68.13
2023-02-20T04:59:07.445Z,67.34
2023-02-20T05:01:34.014Z,67.03
2023-02-20T05:04:00.527Z,67.06
2023-02-20T05:06:27.073Z,67.69
2023-02-20T05:08:53.597Z,67.31
2023-02-20T05:11:20.197Z,67.42
2023-02-20T05:13:46.686Z,67.47
2023-02-20T05:16:14.163Z,67.40
2023-02-20T05:18:40.866Z,67.75
2023-02-20T05:21:25.962Z,67.20
2023-02-20T05:23:52.544Z,67.67
2023-02-20T05:26:20.887Z,67.88
2023-02-20T05:28:47.383Z,67.60
2023-02-20T05:31:17.302Z,67.51
2023-02-20T05:33:44.219Z,68.00
2023-02-20T05:36:10.969Z,67.73
2023-02-20T05:38:37.689Z,69.18
2023-02-20T05:41:04.421Z,68.56
2023-02-20T05:43:30.925Z,68.93
2023-02-20T05:45:57.430Z,69.04
2023-02-20T05:48:23.916Z,68.98
2023-02-20T05:50:50.625Z,69.22
2023-02-20T05:53:17.447Z,69.55
2023-02-20T05:55:44.088Z,69.71
2023-02-20T05:58:10.583Z,69.73
2023-02-20T06:00:37.073Z,69.76
2023-02-20T06:03:06.987Z,69.39
2023-02-20T06:05:33.799Z,70.13
2023-02-20T06:08:00.298Z,69.59
2023-02-20T06:10:27.138Z,69.50
2023-02-20T06:12:53.663Z,69.89
2023-02-20T06:15:20.227Z,69.80
2023-02-20T06:17:46.741Z,70.49
2023-02-20T06:20:13.508Z,70.08
2023-02-20T06:22:40.073Z,70.41
2023-02-20T06:25:06.749Z,69.74
2023-02-20T06:27:33.235Z,70.43
2023-02-20T06:29:59.760Z,70.35
2023-02-20T06:32:26.440Z,69.98
2023-02-20T06:34:52.936Z,70.18
2023-02-20T06:37:19.472Z,70.32
2023-02-20T06:39:48.123Z,70.03
2023-02-20T06:42:15.139Z,70.41
2023-02-20T06:44:41.698Z,70.06
2023-02-20T06:47:09.190Z,69.96
2023-02-20T06:49:36.594Z,69.64
2023-02-20T06:52:04.386Z,70.13
2023-02-20T06:54:31.109Z,70.32
2023-02-20T06:56:57.611Z,69.93
2023-02-20T06:59:24.264Z,69.62
2023-02-20T07:01:50.841Z,69.92
2023-02-20T07:04:26.569Z,69.69
2023-02-20T07:06:54.078Z,69.65
2023-02-20T07:09:20.833Z,68.91
2023-02-20T07:11:48.861Z,68.78
2023-02-20T07:14:15.381Z,69.11
2023-02-20T07:16:41.910Z,68.64
2023-02-20T07:19:08.391Z,68.47
2023-02-20T07:21:34.870Z,68.60
2023-02-20T07:24:01.476Z,68.38
2023-02-20T07:26:29.285Z,67.51
2023-02-20T07:28:58.471Z,67.44
2023-02-20T07:31:25.470Z,67.50
2023-02-20T07:33:52.054Z,66.98
2023-02-20T07:36:18.681Z,67.48
2023-02-20T07:38:56.987Z,66.88
2023-02-20T07:41:24.910Z,66.78
2023-02-20T07:43:51.395Z,66.50
2023-02-20T07:46:20.207Z,65.76
2023-02-20T07:48:47.220Z,66.02
2023-02-20T07:51:14.066Z,65.90
2023-02-20T07:53:41.084Z,65.79
2023-02-20T07:56:07.610Z,65.86
2023-02-20T07:58:34.141Z,65.36
2023-02-20T08:01:00.646Z,65.71
2023-02-20T08:03:27.235Z,65.04
2023-02-20T08:05:53.776Z,64.89
2023-02-20T08:08:24.178Z,65.19
2023-02-20T08:10:57.154Z,64.69
2023-02-20T08:13:29.929Z,65.15
2023-02-20T08:15:56.435Z,64.89
2023-02-20T08:18:24.114Z,64.52
2023-02-20T08:20:52.128Z,64.51
2023-02-20T08:23:20.732Z,64.22
2023-02-20T08:25:47.327Z,64.13
2023-02-20T08:28:14.461Z,64.68
2023-02-20T08:30:41.419Z,63.54
2023-02-20T08:33:08.050Z,63.88
2023-02-20T08:35:34.975Z,63.89
2023-02-20T08:38:06.355Z,63.60
2023-02-20T08:40:33.199Z,64.14
2023-02-20T08:42:59.977Z,64.18
2023-02-20T08:45:26.506Z,64.04
2023-02-20T08:47:59.468Z,63.23
2023-02-20T08:50:26.100Z,63.29
2023-02-20T08:52:52.694Z,63.47
2023-02-20T08:55:19.303Z,63.03
2023-02-20T08:57:45.851Z,62.94
2023-02-20T09:00:14.593Z,62.60
2023-02-20T09:02:41.780Z,62.48
2023-02-20T09:05:09.048Z,62.87
2023-02-20T09:07:35.659Z,62.04
2023-02-20T09:10:02.294Z,62.07
2023-02-20T09:12:28.932Z,62.56
2023-02-20T09:14:55.450Z,61.50
2023-02-20T09:17:22.035Z,61.48
2023-02-20T09:19:48.597Z,60.80
2023-02-20T09:22:16.429Z,60.88
2023-02-20T09:24:42.930Z,60.65
2023-02-20T09:27:10.085Z,60.53
2023-02-20T09:29:40.962Z,60.44
2023-02-20T09:32:07.739Z,60.58
2023-02-20T09:34:34.611Z,60.57
2023-02-20T09:37:01.152Z,60.22
2023-02-20T09:39:27.660Z,60.19
2023-02-20T09:42:31.820Z,59.11
2023-02-20T09:45:10.231Z,58.96
2023-02-20T09:47:55.712Z,59.41
2023-02-20T09:50:37.300Z,58.62
2023-02-20T09:53:21.319Z,58.25
2023-02-20T09:55:49.198Z,58.69
2023-02-20T09:58:24.022Z,58.22
2023-02-20T10:00:51.059Z,58.49
2023-02-20T10:03:33.062Z,56.95
2023-02-20T10:06:01.431Z,57.57
2023-02-20T10:08:28.042Z,57.24
2023-02-20T10:10:57.512Z,56.71
2023-02-20T10:13:27.094Z,56.62
2023-02-20T10:16:00.997Z,56.23
2023-02-20T10:18:48.469Z,54.99
2023-02-20T10:21:44.412Z,55.58
2023-02-20T10:24:39.041Z,54.79
2023-02-20T10:27:26.041Z,54.57
2023-02-20T10:29:53.739Z,55.81
2023-02-20T10:32:49.270Z,55.11
2023-02-20T10:35:21.212Z,55.53
2023-02-20T10:37:52.166Z,55.62
2023-02-20T10:40:28.439Z,55.86
2023-02-20T10:43:10.447Z,55.00
2023-02-20T10:45:54.224Z,55.20
2023-02-20T10:48:24.518Z,54.63
2023-02-20T10:51:03.615Z,54.77
2023-02-20T10:53:42.659Z,54.87
2023-02-20T10:56:26.500Z,54.55
2023-02-20T10:59:02.088Z,54.47
2023-02-20T11:01:29.058Z,54.70
2023-02-20T11:04:12.494Z,53.77
2023-02-20T11:06:45.810Z,54.78
2023-02-20T11:09:13.420Z,55.16
2023-02-20T11:11:45.102Z,55.47
2023-02-20T11:14:11.550Z,55.32
2023-02-20T11:16:53.148Z,55.35
2023-02-20T11:19:30.366Z,56.01
2023-02-20T11:21:56.985Z,55.38
2023-02-20T11:24:23.369Z,55.96
2023-02-20T11:26:53.521Z,55.57
2023-02-20T11:29:22.099Z,56.19
2023-02-20T11:31:49.937Z,55.44
2023-02-20T11:34:22.032Z,55.67
2023-02-20T11:36:53.586Z,55.80
2023-02-20T11:39:30.319Z,56.04
2023-02-20T11:42:17.232Z,55.78
2023-02-20T11:44:44.562Z,55.60
2023-02-20T11:47:17.424Z,55.50
2023-02-20T11:49:44.025Z,55.95
2023-02-20T11:52:22.064Z,55.94
2023-02-20T11:55:09.691Z,55.38
2023-02-20T11:57:40.069Z,56.75
2023-02-20T12:00:15.267Z,56.36
2023-02-20T12:02:54.862Z,57.30
2023-02-20T12:05:36.265Z,56.84
2023-02-20T12:08:02.962Z,57.23
2023-02-20T12:10:39.300Z,57.54
2023-02-20T12:13:07.532Z,57.43
2023-02-20T12:15:34.194Z,57.93
2023-02-20T12:18:25.014Z,57.09
2023-02-20T12:21:10.817Z,57.23
2023-02-20T12:24:10.830Z,57.90
2023-02-20T12:26:54.073Z,57.54
2023-02-20T12:29:39.634Z,57.94
2023-02-20T12:32:13.935Z,57.99
2023-02-20T12:34:45.521Z,57.95
2023-02-20T12:37:42.094Z,57.29
2023-02-20T12:40:36.947Z,57.35
2023-02-20T12:43:23.354Z,57.98
2023-02-20T12:46:00.499Z,58.46
2023-02-20T12:48:35.590Z,58.17
2023-02-20T12:51:08.566Z,58.80
2023-02-20T12:53:51.757Z,59.32
2023-02-20T12:56:36.968Z,59.24
2023-02-20T12:59:26.974Z,59.21
2023-02-20T13:01:53.952Z,59.73
2023-02-20T13:04:28.559Z,60.07
2023-02-20T13:07:10.822Z,60.71
2023-02-20T13:09:42.724Z,60.66
2023-02-20T13:12:16.888Z,60.13
2023-02-20T13:14:58.712Z,61.56
2023-02-20T13:17:40.036Z,61.67
2023-02-20T13:20:23.207Z,62.44
2023-02-20T13:23:04.988Z,62.65
2023-02-20T13:25:31.517Z,62.68
2023-02-20T13:28:02.966Z,62.41
2023-02-20T13:30:29.872Z,62.58
2023-02-20T13:33:30.690Z,63.11
2023-02-20T13:35:57.778Z,63.13
2023-02-20T13:38:26.304Z,63.62
2023-02-20T13:40:55.877Z,63.52
2023-02-20T13:43:22.351Z,63.24
2023-02-20T13:46:14.923Z,63.65
2023-02-20T13:48:46.941Z,63.55
2023-02-20T13:51:21.079Z,64.27
2023-02-20T13:54:01.480Z,64.00
2023-02-20T13:56:43.614Z,64.18
2023-02-20T13:59:13.086Z,64.19
2023-02-20T14:02:03.790Z,63.67
2023-02-20T14:04:31.493Z,64.42
2023-02-20T14:06:59.098Z,64.14
2023-02-20T14:09:32.427Z,64.90
2023-02-20T14:12:06.078Z,64.66
2023-02-20T14:14:36.303Z,65.06
2023-02-20T14:17:14.486Z,64.82
2023-02-20T14:19:46.545Z,64.64
2023-02-20T14:22:19.255Z,64.70
2023-02-20T14:24:45.847Z,64.38
2023-02-20T14:27:26.854Z,64.90
2023-02-20T14:30:11.792Z,64.89
2023-02-20T14:32:38.830Z,64.45
2023-02-20T14:35:33.291Z,64.47
2023-02-20T14:38:31.089Z,65.10
2023-02-20T14:40:59.070Z,64.55
2023-02-20T14:43:27.905Z,63.87
2023-02-20T14:46:06.020Z,64.61
2023-02-20T14:48:34.813Z,64.52
2023-02-20T14:51:09.730Z,64.20
2023-02-20T14:53:37.087Z,63.97
2023-02-20T14:56:18.069Z,63.87
2023-02-20T14:58:45.766Z,64.05
2023-02-20T15:01:27.360Z,64.26
2023-02-20T15:04:03.017Z,63.77
2023-02-20T15:06:30.239Z,63.48
2023-02-20T15:08:58.416Z,63.66
2023-02-20T15:11:25.358Z,63.34
2023-02-20T15:13:52.027Z,63.44
2023-02-20T15:16:24.888Z,63.47
2023-02-20T15:18:52.310Z,63.82
2023-02-20T15:21:40.615Z,63.10
2023-02-20T15:24:25.347Z,63.19
2023-02-20T15:26:52.267Z,63.48
2023-02-20T15:29:18.770Z,63.15
2023-02-20T15:32:06.758Z,63.17
2023-02-20T15:34:35.990Z,62.64
2023-02-20T15:37:33.926Z,63.19
2023-02-20T15:40:18.091Z,63.36
2023-02-20T15:42:44.740Z,62.88
2023-02-20T15:45:14.541Z,63.15
2023-02-20T15:47:41.391Z,63.29
2023-02-20T15:50:08.163Z,63.22
2023-02-20T15:52:34.995Z,62.67
2023-02-20T15:55:01.887Z,63.01
2023-02-20T15:57:28.492Z,62.96
2023-02-20T15:59:55.918Z,62.82
2023-02-20T16:02:24.550Z,63.09
2023-02-20T16:04:52.453Z,63.49
2023-02-20T16:07:20.083Z,63.16
2023-02-20T16:09:46.768Z,62.71
2023-02-20T16:12:28.080Z,63.27
2023-02-20T16:14:55.138Z,62.91
2023-02-20T16:17:25.543Z,62.51
2023-02-20T16:19:52.395Z,63.76
2023-02-20T16:22:18.998Z,64.09
2023-02-20T16:24:45.953Z,63.62
2023-02-20T16:27:23.645Z,63.53
2023-02-20T16:29:52.090Z,63.75
2023-02-20T16:32:24.059Z,63.67
2023-02-20T16:34:51.503Z,63.92
2023-02-20T16:37:18.480Z,64.62
2023-02-20T16:39:45.198Z,64.32
2023-02-20T16:42:20.816Z,64.25
2023-02-20T16:44:48.450Z,64.57
2023-02-20T16:47:20.313Z,64.22
2023-02-20T16:49:48.787Z,64.67
2023-02-20T16:52:23.025Z,64.56
2023-02-20T16:54:50.149Z,64.73
2023-02-20T16:57:17.902Z,64.73
2023-02-20T16:59:44.866Z,64.77
2023-02-20T17:02:19.215Z,65.33
2023-02-20T17:04:45.957Z,65.24
2023-02-20T17:07:12.654Z,65.55
2023-02-20T17:09:44.309Z,65.35
2023-02-20T17:12:14.602Z,65.51
2023-02-20T17:14:41.244Z,65.01
2023-02-20T17:17:08.231Z,65.20
2023-02-20T17:19:39.243Z,65.47
2023-02-20T17:22:06.678Z,65.33
2023-02-20T17:24:33.448Z,65.26
2023-02-20T17:27:01.081Z,65.92
2023-02-20T17:29:28.139Z,65.02
2023-02-20T17:31:55.103Z,65.07
2023-02-20T17:34:21.720Z,64.93
2023-02-20T17:36:49.448Z,65.11
2023-02-20T17:39:17.816Z,65.51
2023-02-20T17:41:44.461Z,65.28
2023-02-20T17:44:11.937Z,65.25
2023-02-20T17:46:39.638Z,65.19
2023-02-20T17:49:06.533Z,65.41
2023-02-20T17:51:33.262Z,64.79
2023-02-20T17:53:59.882Z,65.02
2023-02-20T17:56:26.485Z,65.09
2023-02-20T17:58:53.114Z,65.93
2023-02-20T18:01:19.735Z,66.57
2023-02-20T18:03:46.430Z,66.78
2023-02-20T18:06:13.230Z,66.70
2023-02-20T18:08:40.012Z,66.64
2023-02-20T18:11:06.667Z,66.63
2023-02-20T18:13:33.372Z,66.56
2023-02-20T18:16:00.842Z,67.02
2023-02-20T18:18:27.452Z,67.00
2023-02-20T18:20:53.989Z,67.14
2023-02-20T18:23:20.580Z,66.72
2023-02-20T18:25:47.102Z,66.90
2023-02-20T18:28:13.760Z,67.66
2023-02-20T18:30:40.835Z,67.44
2023-02-20T18:33:07.574Z,67.65
2023-02-20T18:35:34.233Z,68.32
2023-02-20T18:38:01.293Z,68.11
2023-02-20T18:40:31.098Z,68.56
2023-02-20T18:42:57.659Z,68.69
2023-02-20T18:45:24.300Z,69.31
2023-02-20T18:47:51.838Z,69.45
2023-02-20T18:50:19.100Z,68.90
2023-02-20T18:52:47.879Z,70.15
2023-02-20T18:55:17.870Z,70.59
2023-02-20T18:57:48.701Z,70.84
2023-02-20T19:00:17.900Z,70.76
2023-02-20T19:02:45.290Z,71.11
2023-02-20T19:05:12.636Z,70.67
2023-02-20T19:07:43.351Z,70.70
2023-02-20T19:10:14.750Z,71.92
2023-02-20T19:12:41.335Z,71.57
2023-02-20T19:15:09.225Z,71.56
2023-02-20T19:17:37.549Z,72.27
2023-02-20T19:20:06.841Z,72.10
2023-02-20T19:22:36.177Z,72.25
2023-02-20T19:25:03.631Z,71.86
2023-02-20T19:27:30.240Z,72.36
2023-02-20T19:29:56.762Z,72.47
2023-02-20T19:32:23.622Z,72.45
2023-02-20T19:34:50.248Z,72.52
2023-02-20T19:37:17.805Z,72.77
2023-02-20T19:39:44.453Z,72.79
2023-02-20T19:42:11.095Z,72.83
2023-02-20T19:44:38.090Z,73.06
2023-02-20T19:47:04.920Z,72.75
2023-02-20T19:49:31.466Z,72.88
2023-02-20T19:51:58.351Z,72.82
2023-02-20T19:54:27.752Z,73.05
2023-02-20T19:57:03.074Z,72.90
2023-02-20T19:59:30.315Z,73.07
2023-02-20T20:01:58.629Z,72.90
2023-02-20T20:04:27.695Z,72.36
2023-02-20T20:06:54.694Z,72.46
2023-02-20T20:09:35.642Z,72.62
2023-02-20T20:12:03.278Z,72.28
2023-02-20T20:14:29.892Z,72.36
2023-02-20T20:16:56.509Z,71.58
2023-02-20T20:19:23.243Z,71.87
2023-02-20T20:21:50.374Z,71.73
2023-02-20T20:24:17.288Z,71.69
2023-02-20T20:26:44.207Z,71.42
2023-02-20T20:29:10.922Z,71.45
2023-02-20T20:31:40.811Z,71.50
2023-02-20T20:34:07.899Z,71.20
2023-02-20T20:36:34.896Z,71.10
2023-02-20T20:39:01.500Z,71.34
2023-02-20T20:41:30.415Z,71.20
2023-02-20T20:44:04.639Z,71.17
2023-02-20T20:46:32.670Z,71.07
2023-02-20T20:48:59.265Z,70.74
2023-02-20T20:51:25.936Z,70.83
2023-02-20T20:53:52.674Z,70.01
2023-02-20T20:56:19.390Z,70.49
2023-02-20T20:58:46.023Z,70.51
2023-02-20T21:01:12.912Z,70.21
2023-02-20T21:03:39.684Z,70.53
2023-02-20T21:06:06.270Z,70.78
2023-02-20T21:08:33.861Z,70.36
2023-02-20T21:11:00.496Z,70.11
2023-02-20T21:13:27.062Z,70.22
2023-02-20T21:15:53.676Z,69.79
2023-02-20T21:18:20.355Z,70.38
2023-02-20T21:20:46.960Z,69.96
2023-02-20T21:23:13.792Z,69.65
2023-02-20T21:25:41.917Z,69.98
2023-02-20T21:28:08.642Z,69.73
2023-02-20T21:30:35.326Z,69.67
2023-02-20T21:33:01.956Z,69.99
2023-02-20T21:35:28.512Z,69.71
2023-02-20T21:37:55.594Z,69.78
2023-02-20T21:40:22.184Z,70.03
2023-02-20T21:43:07.151Z,69.49
2023-02-20T21:45:36.238Z,69.86
2023-02-20T21:48:04.424Z,69.97
2023-02-20T21:50:31.202Z,69.92
2023-02-20T21:52:57.811Z,70.04
2023-02-20T21:55:24.561Z,70.40
2023-02-20T21:57:51.584Z,70.37
2023-02-20T22:00:18.192Z,70.33
2023-02-20T22:02:45.082Z,69.75
2023-02-20T22:05:11.803Z,70.09
2023-02-20T22:07:56.955Z,70.40
2023-02-20T22:10:43.270Z,69.93
2023-02-20T22:13:28.938Z,70.12
2023-02-20T22:16:14.047Z,70.42
2023-02-20T22:18:59.347Z,69.91
2023-02-20T22:21:44.408Z,70.12
2023-02-20T22:24:38.299Z,70.19
2023-02-20T22:27:27.691Z,70.32
2023-02-20T22:30:13.546Z,70.57
2023-02-20T22:32:58.929Z,71.00
2023-02-20T22:35:44.193Z,70.70
2023-02-20T22:38:29.475Z,70.42
2023-02-20T22:41:14.766Z,70.19
2023-02-20T22:43:59.800Z,70.81
2023-02-20T22:46:44.622Z,70.80
2023-02-20T22:49:30.038Z,70.23
2023-02-20T22:52:14.855Z,70.63
2023-02-20T22:55:05.273Z,71.07
2023-02-20T22:57:51.280Z,70.53
2023-02-20T23:00:36.125Z,71.10
2023-02-20T23:03:21.455Z,71.54
2023-02-20T23:06:16.839Z,71.15
2023-02-20T23:09:03.108Z,70.95
2023-02-20T23:11:51.280Z,71.30
2023-02-20T23:14:36.118Z,70.78
2023-02-20T23:17:34.433Z,71.34
2023-02-20T23:20:20.888Z,70.88
2023-02-20T23:23:05.846Z,71.70
2023-02-20T23:25:50.700Z,72.31
2023-02-20T23:28:37.434Z,71.53
2023-02-20T23:31:23.421Z,72.29
2023-02-20T23:34:08.571Z,72.25
2023-02-20T23:36:53.985Z,72.13
2023-02-20T23:39:38.785Z,72.05
2023-02-20T23:42:23.997Z,72.49
2023-02-20T23:45:08.982Z,72.92
2023-02-20T23:47:54.055Z,73.27
2023-02-20T23:50:39.176Z,72.79
2023-02-20T23:53:24.203Z,73.62
2023-02-20T23:56:09.470Z,73.25
2023-02-20T23:58:54.361Z,73.83
